HUAL Seoul — LADO6 — position and weather

sailwx.info

Track history (hours):
 
Tides and Currents Weather Stations Pressure Air Temp Water Temp Dewpoint Dewpoint Depression Visibility Wind Speed Wind Dir Waves Ship Positions

HUAL Seoul

Last reported at 2015-Jul-28 12:32 UTC. Time now 2015-Jul-29 04:55 UTC.
Position N 01°15' E 104°05'.

Type: Cargo ship. MMSI: 257496000.

Date/timePositionNaut miles runAvg speedWind from/ knotsBaromVisibWave heightAir tempDewpointWater temp
2015-Jul-28 12:32N 01°15' E 104°05'1111.0
2015-Jul-28 11:33N 01°17' E 103°54'0 0.1
2015-Jul-28 10:29N 01°17' E 103°54'0 0.0
2015-Jul-28 09:32N 01°17' E 103°54'0 0.0
2015-Jul-28 08:32N 01°17' E 103°54'0 0.0
2015-Jul-28 07:23N 01°17' E 103°54'0 0.0
2015-Jul-28 06:26N 01°17' E 103°54'0 0.0
2015-Jul-28 04:14N 01°17' E 103°54'0 0.0
2015-Jul-28 03:14N 01°17' E 103°54'0 0.0
2015-Jul-28 02:23N 01°17' E 103°54'0 0.4
2015-Jul-28 01:33N 01°16' E 103°54'5 5.0
2015-Jul-28 00:32N 01°12' E 103°51'8 7.7
2015-Jul-27 23:33N 01°17' E 103°45'0 0.2
2015-Jul-27 22:33N 01°17' E 103°45'0 0.0
2015-Jul-27 21:33N 01°17' E 103°45'0 0.0
2015-Jul-27 20:33N 01°17' E 103°45'0 0.0
2015-Jul-27 19:27N 01°17' E 103°45'0 0.0
2015-Jul-27 18:33N 01°17' E 103°45'0 0.0
2015-Jul-27 17:33N 01°17' E 103°45'0 0.0
2015-Jul-27 16:33N 01°17' E 103°45'0 0.0
2015-Jul-27 15:33N 01°17' E 103°45'0 0.0
2015-Jul-27 14:33N 01°17' E 103°45'0 0.0
2015-Jul-27 13:33N 01°17' E 103°45'1 0.7
2015-Jul-27 12:33N 01°17' E 103°45'8 8.4
2015-Jul-27 11:33N 01°12' E 103°38'13211.0
2015-Jul-26 23:33N 02°19' E 101°44'2412.1
2015-Jul-26 21:33N 02°34' E 101°24'1212.3
2015-Jul-26 20:33N 02°40' E 101°13'1312.9
2015-Jul-26 19:33N 02°46' E 101°02'1211.9
2015-Jul-26 18:31N 02°54' E 100°53'2312.0
2015-Jul-26 16:34N 03°10' E 100°35'  
Track history (hours):
 
Tides and Currents Weather Stations Pressure Air Temp Water Temp Dewpoint Dewpoint Depression Visibility Wind Speed Wind Dir Waves Ship Positions

HUAL Seoul

Last reported at 2015-Jul-28 12:32 UTC. Time now 2015-Jul-29 04:55 UTC.
Position N 01°15' E 104°05'.

Type: Cargo ship. MMSI: 257496000.

Date/timePositionNaut miles runAvg speedWind from/ knotsBaromVisibWave heightAir tempDewpointWater temp
2015-Jul-28 12:32N 01°15' E 104°05'1111.0
2015-Jul-28 11:33N 01°17' E 103°54'0 0.1
2015-Jul-28 10:29N 01°17' E 103°54'0 0.0
2015-Jul-28 09:32N 01°17' E 103°54'0 0.0
2015-Jul-28 08:32N 01°17' E 103°54'0 0.0
2015-Jul-28 07:23N 01°17' E 103°54'0 0.0
2015-Jul-28 06:26N 01°17' E 103°54'0 0.0
2015-Jul-28 04:14N 01°17' E 103°54'0 0.0
2015-Jul-28 03:14N 01°17' E 103°54'0 0.0
2015-Jul-28 02:23N 01°17' E 103°54'0 0.4
2015-Jul-28 01:33N 01°16' E 103°54'5 5.0
2015-Jul-28 00:32N 01°12' E 103°51'8 7.7
2015-Jul-27 23:33N 01°17' E 103°45'0 0.2
2015-Jul-27 22:33N 01°17' E 103°45'0 0.0
2015-Jul-27 21:33N 01°17' E 103°45'0 0.0
2015-Jul-27 20:33N 01°17' E 103°45'0 0.0
2015-Jul-27 19:27N 01°17' E 103°45'0 0.0
2015-Jul-27 18:33N 01°17' E 103°45'0 0.0
2015-Jul-27 17:33N 01°17' E 103°45'0 0.0
2015-Jul-27 16:33N 01°17' E 103°45'0 0.0
2015-Jul-27 15:33N 01°17' E 103°45'0 0.0
2015-Jul-27 14:33N 01°17' E 103°45'0 0.0
2015-Jul-27 13:33N 01°17' E 103°45'1 0.7
2015-Jul-27 12:33N 01°17' E 103°45'8 8.4
2015-Jul-27 11:33N 01°12' E 103°38'13211.0
2015-Jul-26 23:33N 02°19' E 101°44'2412.1
2015-Jul-26 21:33N 02°34' E 101°24'1212.3
2015-Jul-26 20:33N 02°40' E 101°13'1312.9
2015-Jul-26 19:33N 02°46' E 101°02'1211.9
2015-Jul-26 18:31N 02°54' E 100°53'2312.0
2015-Jul-26 16:34N 03°10' E 100°35'  

Dump ship's entire track history